Aérodrome :
LOGIN :

S'inscrire | Disclaimer

   EN    FR    IT 

 










Légende :    VFR   VFR Marginal   IFR   IFR Intensif   IFR Très Intensif
Visi : 
Plafond : 
>= 8 km
>= 3000ft
5 à 8 km
1000 à 3000 ft
1500m à 5 km
500 à 1000 ft
800 à 1500m
200 à 500 ft
< 800m
< 200 ft
Symboles :   Orages  Brouillard  Fortes neiges  Fortes précipitations  Vent > 20 kt
SIGMETs :   Divers  Orages  Givrage  Turbulence  Onde Orograph.  Cendres Volcan.






- Altitude de l'aérodrome : 1213 ft
- Code IATA : SCQ


LEST - Santiago de Compostela

DERNIER METAR :
  • 260130Z 28003KT 250V310 9999 FEW008 SCT026 BKN038 07/06 Q1026 NOSIG

METARs EXPIRÉS :
  • 260100Z 29004KT 250V320 9999 FEW012 SCT026 BKN038 07/07 Q1026 NOSIG
  • 260030Z 27004KT 230V310 9999 FEW005 SCT022 BKN040 07/07 Q1026 NOSIG
  • 260000Z 26004KT 210V300 9999 SCT020 BKN037 07/07 Q1026 NOSIG
  • 252330Z 28003KT 240V320 9999 FEW017 OVC038 07/07 Q1026 NOSIG
  • 252300Z 30003KT 270V350 9999 FEW011 OVC037 07/06 Q1026 NOSIG

TAF TAF LEST
Valide du 26 à 00h jusqu'au 27 à 00h UTC


252300Z 2600/2624 27008KT 9999 SCT010 BKN025 TX11/2614Z TN06/2606Z
TEMPO 2600/2624 3000 -RADZ BR BKN010
PROB30
TEMPO 2600/2606 0800 BCFG BKN002
TEMPO 2621/2624 0800 BCFG BKN005



MET'MAP, la Météo Aéronautique d'un coup d'oeil ! - Copyright ORBIFLY Décembre 2007 - Disclaimer

ORBIFLY MET'MAP TEAM :

Programmation & Développement : Alexandra Zaïnal
Sur une idée originale de : Baudouin d'Aumeries
Assistance à la programmation : Marc-Olivier Méhu
Soutien technique & logistique : Manuel Goepfert

Contact : metmap@orbifly.com




SOURCES & CREDITS :

   NOAA